CZ-0035 weather

Neratovice Heliport
Neratovice, Central Bohemian Region, Czechia

Public forecast

Using degrees Celsius for public forecast. Weather courtesy of forecast.io.

Closest aviation weather report (METAR) to Neratovice Heliport

Closest report is Vodochody Airport, 5.4 nm (10.0 km) WSW. Retrieved 2019/10/22 11:00 UTC (1 hour ago):

LKVO 221100Z 24002KT 0300 FG VV002 13/13 Q1025

Closest aviation forecast (TAF) to Neratovice Heliport

Closest forecast is Kbely Air Base, 8.0 nm (14.8 km) S. Retrieved 2019/10/22 12:00 UTC (20 minutes ago):

TAF COR LKKB 221100Z 2212/2312 VRB02KT 3000 BR BKN002 TEMPO 2213/2216 4000 SCT007 BECMG 2216/2218 2000 BR TEMPO 2218/2310 0300 FG VV001